Black River (Missouri), Leeper (07062500)

StateMissouriLatestLow (546 cfs)
RiverBlack RiverRatingObservedEstimated
Updated2021-01-24 8:30 (43 minutes ago)Flood - The river is flooding. Obstacles can be treacherous or deadly. The river should be avoided at this stage for casual trips and definitely for the inexperienced. Trips should be attempted only with protective gear and equipment.Flood(none)3475
Discharge546 cfs (median: 716 cfs)High - The river is high and potentially dangerous, especially for the young and / or inexperienced. Normal stream obstacles are sometimes difficult to navigate. Extended distances can be attempted, but canoe travel may not be advisable.High(none)1150
Height2.91 feetGood - Conditions are ideal for a canoe or kayak. Boats typically will drag on fewer than one-quarter of riffles, if at all, and portages are unnecessary or rare. Normal float lengths can be attempted without a problem.Good(none)713
TrendSteady (steady over 24 hours)Low - River is low but can still be floated. Some riffles are okay but most come with significant dragging and might need a portage. Float lengths should be reduced to accommodate low flow, dragging, and portages.Low(none)418
USGSExternal icon USGS Site (External icon Google Maps)Poor - River is too low to float comfortably. Most or all riffles will drag or must be portaged and some obstacles (such as slick shelf rock) cause undue problems. Avoid the river at this stage for casual paddling trips.Poor(none)219

Trending Data

Plot Image

Trips for Black River (Missouri), Leeper (07062500)

DateStartEndDistanceConditionDischargeHeightFishingDetails

A total of 0 rows are displayed.

Condition Descriptions

Fishing Conditions

Fish Species

Notes

Classic Trip List

The classic River Trips application is still available for use. It is updated with the new system using a data retrofit. It is no longer maintained. The original River Trips application is no longer updated (as of 1 Dec 2016) but can be checked for errors or for the condition of the data before it was converted to the new system.

Gauge Data Table

ObservationHeightDischargeMaximum
Discharge
Minimum
Discharge
Mean
Discharge
P05P10P20P25P50
(Median)
P75P80P90P95
2021-01-24 08:30 2.91 546 4460 (1950) 206 (1956) 1380 282 293 379 403 716 2630 2980 3560 3990
2021-01-24 07:30 2.91 546 4460 (1950) 206 (1956) 1380 282 293 379 403 716 2630 2980 3560 3990
2021-01-24 06:30 2.91 546 4460 (1950) 206 (1956) 1380 282 293 379 403 716 2630 2980 3560 3990
2021-01-24 05:30 2.91 546 4460 (1950) 206 (1956) 1380 282 293 379 403 716 2630 2980 3560 3990
2021-01-24 04:30 2.89 537 4460 (1950) 206 (1956) 1380 282 293 379 403 716 2630 2980 3560 3990
2021-01-24 03:30 2.88 533 4460 (1950) 206 (1956) 1380 282 293 379 403 716 2630 2980 3560 3990
2021-01-24 02:30 2.90 542 4460 (1950) 206 (1956) 1380 282 293 379 403 716 2630 2980 3560 3990
2021-01-24 01:30 2.91 546 4460 (1950) 206 (1956) 1380 282 293 379 403 716 2630 2980 3560 3990
2021-01-24 00:30 2.89 537 4460 (1950) 206 (1956) 1380 282 293 379 403 716 2630 2980 3560 3990
2021-01-23 23:30 2.89 537 4370 (1950) 221 (1956) 1360 247 286 375 406 687 2490 2740 3650 3970
2021-01-23 22:30 2.89 537 4370 (1950) 221 (1956) 1360 247 286 375 406 687 2490 2740 3650 3970
2021-01-23 21:30 2.90 542 4370 (1950) 221 (1956) 1360 247 286 375 406 687 2490 2740 3650 3970
2021-01-23 20:30 2.89 537 4370 (1950) 221 (1956) 1360 247 286 375 406 687 2490 2740 3650 3970
2021-01-23 19:30 2.90 542 4370 (1950) 221 (1956) 1360 247 286 375 406 687 2490 2740 3650 3970
2021-01-23 18:30 2.90 542 4370 (1950) 221 (1956) 1360 247 286 375 406 687 2490 2740 3650 3970
2021-01-23 17:30 2.90 542 4370 (1950) 221 (1956) 1360 247 286 375 406 687 2490 2740 3650 3970
2021-01-23 16:30 2.90 542 4370 (1950) 221 (1956) 1360 247 286 375 406 687 2490 2740 3650 3970
2021-01-23 15:30 2.88 533 4370 (1950) 221 (1956) 1360 247 286 375 406 687 2490 2740 3650 3970
2021-01-23 14:30 2.89 537 4370 (1950) 221 (1956) 1360 247 286 375 406 687 2490 2740 3650 3970
2021-01-23 13:30 2.89 537 4370 (1950) 221 (1956) 1360 247 286 375 406 687 2490 2740 3650 3970
2021-01-23 12:30 2.90 542 4370 (1950) 221 (1956) 1360 247 286 375 406 687 2490 2740 3650 3970
2021-01-23 11:30 2.89 537 4370 (1950) 221 (1956) 1360 247 286 375 406 687 2490 2740 3650 3970
2021-01-23 10:30 2.91 546 4370 (1950) 221 (1956) 1360 247 286 375 406 687 2490 2740 3650 3970
2021-01-23 09:30 2.92 551 4370 (1950) 221 (1956) 1360 247 286 375 406 687 2490 2740 3650 3970
2021-01-23 08:30 2.89 537 4370 (1950) 221 (1956) 1360 247 286 375 406 687 2490 2740 3650 3970
2021-01-23 07:30 2.91 546 4370 (1950) 221 (1956) 1360 247 286 375 406 687 2490 2740 3650 3970
2021-01-23 06:30 2.91 546 4370 (1950) 221 (1956) 1360 247 286 375 406 687 2490 2740 3650 3970
2021-01-23 05:30 2.90 542 4370 (1950) 221 (1956) 1360 247 286 375 406 687 2490 2740 3650 3970
2021-01-23 04:30 2.92 551 4370 (1950) 221 (1956) 1360 247 286 375 406 687 2490 2740 3650 3970
2021-01-23 03:30 2.91 546 4370 (1950) 221 (1956) 1360 247 286 375 406 687 2490 2740 3650 3970
2021-01-23 02:30 2.91 546 4370 (1950) 221 (1956) 1360 247 286 375 406 687 2490 2740 3650 3970
2021-01-23 01:30 2.91 546 4370 (1950) 221 (1956) 1360 247 286 375 406 687 2490 2740 3650 3970
2021-01-23 00:30 2.90 542 4370 (1950) 221 (1956) 1360 247 286 375 406 687 2490 2740 3650 3970
2021-01-22 23:30 2.90 542 4540 (1949) 228 (1956) 1320 234 304 383 420 680 1760 2790 3640 3980
2021-01-22 22:30 2.90 542 4540 (1949) 228 (1956) 1320 234 304 383 420 680 1760 2790 3640 3980
2021-01-22 21:30 2.91 546 4540 (1949) 228 (1956) 1320 234 304 383 420 680 1760 2790 3640 3980
2021-01-22 20:30 2.90 542 4540 (1949) 228 (1956) 1320 234 304 383 420 680 1760 2790 3640 3980
2021-01-22 19:30 2.89 537 4540 (1949) 228 (1956) 1320 234 304 383 420 680 1760 2790 3640 3980
2021-01-22 18:30 2.90 542 4540 (1949) 228 (1956) 1320 234 304 383 420 680 1760 2790 3640 3980
2021-01-22 17:30 2.90 542 4540 (1949) 228 (1956) 1320 234 304 383 420 680 1760 2790 3640 3980
2021-01-22 16:30 2.90 542 4540 (1949) 228 (1956) 1320 234 304 383 420 680 1760 2790 3640 3980
2021-01-22 15:30 2.90 542 4540 (1949) 228 (1956) 1320 234 304 383 420 680 1760 2790 3640 3980
2021-01-22 14:30 2.92 551 4540 (1949) 228 (1956) 1320 234 304 383 420 680 1760 2790 3640 3980
2021-01-22 13:30 2.91 546 4540 (1949) 228 (1956) 1320 234 304 383 420 680 1760 2790 3640 3980
2021-01-22 12:30 2.92 551 4540 (1949) 228 (1956) 1320 234 304 383 420 680 1760 2790 3640 3980
2021-01-22 11:30 2.92 551 4540 (1949) 228 (1956) 1320 234 304 383 420 680 1760 2790 3640 3980
2021-01-22 10:30 2.90 542 4540 (1949) 228 (1956) 1320 234 304 383 420 680 1760 2790 3640 3980
2021-01-22 09:30 2.91 546 4540 (1949) 228 (1956) 1320 234 304 383 420 680 1760 2790 3640 3980
2021-01-22 08:30 2.92 551 4540 (1949) 228 (1956) 1320 234 304 383 420 680 1760 2790 3640 3980
2021-01-22 07:30 2.92 551 4540 (1949) 228 (1956) 1320 234 304 383 420 680 1760 2790 3640 3980
2021-01-22 06:30 2.92 551 4540 (1949) 228 (1956) 1320 234 304 383 420 680 1760 2790 3640 3980
2021-01-22 05:30 2.91 546 4540 (1949) 228 (1956) 1320 234 304 383 420 680 1760 2790 3640 3980
2021-01-22 04:30 2.93 555 4540 (1949) 228 (1956) 1320 234 304 383 420 680 1760 2790 3640 3980
2021-01-22 03:30 2.93 555 4540 (1949) 228 (1956) 1320 234 304 383 420 680 1760 2790 3640 3980
2021-01-22 02:30 2.93 555 4540 (1949) 228 (1956) 1320 234 304 383 420 680 1760 2790 3640 3980
2021-01-22 01:30 2.94 560 4540 (1949) 228 (1956) 1320 234 304 383 420 680 1760 2790 3640 3980
2021-01-22 00:30 2.93 555 4540 (1949) 228 (1956) 1320 234 304 383 420 680 1760 2790 3640 3980
2021-01-21 23:30 2.94 560 5010 (1950) 228 (1956) 1310 234 296 376 405 581 1770 2980 3690 3970
2021-01-21 22:30 2.94 560 5010 (1950) 228 (1956) 1310 234 296 376 405 581 1770 2980 3690 3970
2021-01-21 21:30 2.94 560 5010 (1950) 228 (1956) 1310 234 296 376 405 581 1770 2980 3690 3970
2021-01-21 20:30 2.95 564 5010 (1950) 228 (1956) 1310 234 296 376 405 581 1770 2980 3690 3970
2021-01-21 19:30 2.97 573 5010 (1950) 228 (1956) 1310 234 296 376 405 581 1770 2980 3690 3970
2021-01-21 18:30 2.97 573 5010 (1950) 228 (1956) 1310 234 296 376 405 581 1770 2980 3690 3970
2021-01-21 17:30 2.98 578 5010 (1950) 228 (1956) 1310 234 296 376 405 581 1770 2980 3690 3970
2021-01-21 16:30 3.00 587 5010 (1950) 228 (1956) 1310 234 296 376 405 581 1770 2980 3690 3970
2021-01-21 15:30 3.02 596 5010 (1950) 228 (1956) 1310 234 296 376 405 581 1770 2980 3690 3970
2021-01-21 14:30 3.06 615 5010 (1950) 228 (1956) 1310 234 296 376 405 581 1770 2980 3690 3970
2021-01-21 13:30 3.11 638 5010 (1950) 228 (1956) 1310 234 296 376 405 581 1770 2980 3690 3970
2021-01-21 12:30 3.16 662 5010 (1950) 228 (1956) 1310 234 296 376 405 581 1770 2980 3690 3970
2021-01-21 11:30 3.22 691 5010 (1950) 228 (1956) 1310 234 296 376 405 581 1770 2980 3690 3970
2021-01-21 10:30 3.28 721 5010 (1950) 228 (1956) 1310 234 296 376 405 581 1770 2980 3690 3970
2021-01-21 09:30 3.32 740 5010 (1950) 228 (1956) 1310 234 296 376 405 581 1770 2980 3690 3970
2021-01-21 08:30 3.32 740 5010 (1950) 228 (1956) 1310 234 296 376 405 581 1770 2980 3690 3970
2021-01-21 07:30 3.31 735 5010 (1950) 228 (1956) 1310 234 296 376 405 581 1770 2980 3690 3970
2021-01-21 06:30 3.32 740 5010 (1950) 228 (1956) 1310 234 296 376 405 581 1770 2980 3690 3970
2021-01-21 05:30 3.32 740 5010 (1950) 228 (1956) 1310 234 296 376 405 581 1770 2980 3690 3970
2021-01-21 04:30 3.31 735 5010 (1950) 228 (1956) 1310 234 296 376 405 581 1770 2980 3690 3970
2021-01-21 03:30 3.32 740 5010 (1950) 228 (1956) 1310 234 296 376 405 581 1770 2980 3690 3970
2021-01-21 02:30 3.33 746 5010 (1950) 228 (1956) 1310 234 296 376 405 581 1770 2980 3690 3970
2021-01-21 01:30 3.31 735 5010 (1950) 228 (1956) 1310 234 296 376 405 581 1770 2980 3690 3970
2021-01-21 00:30 3.32 740 5010 (1950) 228 (1956) 1310 234 296 376 405 581 1770 2980 3690 3970

A total of 81 rows are displayed for years 1949 through 2020.